Wickenby Aerodrome

METAR EGXW TAF EGXC
3 °C
°C
-
°C
22m
Wiek
03:42:16
LT
02:42
UTC
0 ft

4.000

8.000

12.000

16.000

20.000

FEW 17.000
VFR
<?= Yii::t('app', 'Wind direction') ?> <?= Yii::t('app', 'of'); ?>
220°
07:37
Wschód słońca
75%
Wilgotność
Siła wiatru
Zamknięte/Śnieg
Zasięg wzroku na RWY
Stan RWY
Widzialność pionowa
Min. widoczność
CAVOK
Trend
Korekta
Raport specjalny
1043 hPa
QNH
METAR EGXW 060220Z AUTO 22006KT 9999 FEW170/// 03/M01 Q1043
Kilka chmur
1 kt
1 kt
02:00
IFR
3 kt
03:00
IFR
3 kt
04:00
IFR
3 kt
05:00
IFR
3 kt
06:00
IFR
3 kt
07:00
IFR
3 kt
08:00
IFR
3 kt
10 km+
Widoczność
Brak
Sufit
6 kt
Wiatr
metar-taf.com/EGNW

Metar-Taf.com

Dekoder wizualny

My i strony trzecie śledzimy Twoje zachowanie internetowe na naszej stronie za pomocą plików cookie. Jeśli kontynuujesz, zakładamy, że zgadzasz się z naszymi polityka plików cookie.